createdAt,value
2019-04-03T00:00:40.551Z,19.00
2019-04-03T00:01:47.708Z,18.60
2019-04-03T00:02:54.786Z,19.37
2019-04-03T00:04:05.421Z,21.87
2019-04-03T00:05:12.347Z,19.50
2019-04-03T00:06:19.232Z,19.40
2019-04-03T00:07:26.047Z,19.70
2019-04-03T00:08:32.792Z,21.63
2019-04-03T00:09:39.866Z,21.17
2019-04-03T00:10:46.599Z,20.90
2019-04-03T00:11:53.609Z,20.37
2019-04-03T00:13:00.419Z,21.77
2019-04-03T00:14:07.783Z,23.10
2019-04-03T00:15:14.933Z,23.40
2019-04-03T00:16:21.679Z,23.73
2019-04-03T00:17:28.464Z,22.47
2019-04-03T00:18:35.583Z,21.73
2019-04-03T00:19:42.360Z,23.13
2019-04-03T00:20:49.290Z,24.00
2019-04-03T00:21:56.058Z,23.80
2019-04-03T00:23:03.059Z,23.03
2019-04-03T00:24:09.796Z,26.80
2019-04-03T00:25:16.543Z,24.80
2019-04-03T00:26:23.350Z,23.67
2019-04-03T00:27:30.753Z,23.73
2019-04-03T00:28:37.700Z,24.03
2019-04-03T00:29:44.541Z,25.70
2019-04-03T00:30:52.963Z,27.50
2019-04-03T00:31:59.683Z,26.67
2019-04-03T00:33:06.429Z,24.43
2019-04-03T00:34:13.223Z,27.57
2019-04-03T00:35:22.951Z,27.97
2019-04-03T00:36:29.075Z,27.27
2019-04-03T00:37:36.118Z,26.20
2019-04-03T00:38:42.854Z,25.40
2019-04-03T00:39:49.748Z,27.83
2019-04-03T00:40:56.840Z,27.47
2019-04-03T00:42:03.901Z,27.40
2019-04-03T00:43:10.995Z,28.33
2019-04-03T00:44:17.770Z,26.30
2019-04-03T00:45:25.090Z,30.17
2019-04-03T00:46:32.538Z,28.27
2019-04-03T00:47:39.484Z,30.13
2019-04-03T00:48:46.215Z,29.63
2019-04-03T00:49:53.395Z,30.47
2019-04-03T00:51:00.680Z,31.37
2019-04-03T00:52:07.837Z,29.43
2019-04-03T00:53:15.329Z,29.80
2019-04-03T00:54:22.249Z,30.23
2019-04-03T00:55:29.066Z,31.97
2019-04-03T00:56:36.246Z,31.70
2019-04-03T00:57:43.026Z,31.20
2019-04-03T00:58:50.004Z,31.43
2019-04-03T00:59:57.367Z,30.10
2019-04-03T01:01:05.127Z,33.50
2019-04-03T01:02:11.878Z,30.27
2019-04-03T01:03:18.611Z,33.37
2019-04-03T01:04:28.274Z,30.57
2019-04-03T01:05:34.364Z,31.67
2019-04-03T01:06:41.100Z,31.27
2019-04-03T01:07:47.826Z,30.60
2019-04-03T01:08:54.829Z,30.33
2019-04-03T01:10:01.894Z,30.87
2019-04-03T01:11:08.659Z,30.93
2019-04-03T01:12:15.388Z,31.57
2019-04-03T01:13:22.490Z,29.37
2019-04-03T01:14:31.302Z,29.60
2019-04-03T01:15:38.410Z,30.23
2019-04-03T01:16:45.966Z,27.77
2019-04-03T01:17:52.725Z,27.87
2019-04-03T01:18:59.563Z,27.20
2019-04-03T01:20:07.980Z,29.40
2019-04-03T01:21:14.719Z,30.10
2019-04-03T01:22:21.555Z,27.80
2019-04-03T01:23:28.692Z,28.30
2019-04-03T01:24:38.047Z,27.63
2019-04-03T01:25:44.265Z,27.40
2019-04-03T01:26:51.649Z,28.37
2019-04-03T01:27:58.898Z,27.47
2019-04-03T01:29:05.664Z,27.57
2019-04-03T01:30:13.964Z,26.97
2019-04-03T01:31:21.148Z,27.43
2019-04-03T01:32:28.031Z,26.97
2019-04-03T01:33:35.768Z,27.77
2019-04-03T01:34:42.667Z,28.80
2019-04-03T01:35:49.407Z,29.20
2019-04-03T01:36:56.154Z,28.20
2019-04-03T01:38:02.927Z,27.53
2019-04-03T01:39:10.451Z,28.70
2019-04-03T01:40:20.302Z,27.80
2019-04-03T01:41:25.937Z,29.70
2019-04-03T01:42:32.742Z,27.13
2019-04-03T01:43:40.363Z,26.97
2019-04-03T01:44:47.130Z,28.00
2019-04-03T01:45:56.580Z,26.27
2019-04-03T01:47:02.730Z,25.57
2019-04-03T01:48:09.591Z,27.07
2019-04-03T01:49:16.373Z,26.50
2019-04-03T01:50:23.223Z,24.43
2019-04-03T01:51:30.385Z,26.63
2019-04-03T01:52:37.358Z,26.87
2019-04-03T01:53:44.495Z,24.50
2019-04-03T01:54:52.038Z,25.40
2019-04-03T01:55:58.770Z,24.60
2019-04-03T01:57:06.427Z,24.67
2019-04-03T01:58:14.143Z,24.67
2019-04-03T01:59:20.993Z,25.60
2019-04-03T02:00:28.099Z,22.67
2019-04-03T02:01:37.908Z,24.17
2019-04-03T02:02:45.006Z,23.63
2019-04-03T02:03:51.738Z,25.97
2019-04-03T02:04:58.973Z,24.30
2019-04-03T02:06:05.844Z,26.00
2019-04-03T02:07:14.494Z,25.70
2019-04-03T02:08:21.041Z,26.87
2019-04-03T02:09:27.865Z,25.10
2019-04-03T02:10:35.297Z,26.73
2019-04-03T02:11:42.450Z,26.20
2019-04-03T02:12:51.243Z,24.73
2019-04-03T02:13:58.023Z,26.97
2019-04-03T02:15:05.298Z,25.17
2019-04-03T02:16:12.432Z,27.57
2019-04-03T02:17:19.178Z,24.83
2019-04-03T02:18:26.351Z,25.17
2019-04-03T02:19:33.945Z,27.27
2019-04-03T02:20:40.795Z,25.70
2019-04-03T02:21:47.558Z,26.43
2019-04-03T02:22:54.368Z,27.40
2019-04-03T02:24:01.846Z,27.70
2019-04-03T02:25:09.089Z,28.00
2019-04-03T02:26:15.879Z,27.63
2019-04-03T02:27:22.638Z,26.90
2019-04-03T02:28:29.361Z,28.17
2019-04-03T02:29:36.095Z,26.53
2019-04-03T02:30:46.115Z,28.53
2019-04-03T02:31:52.644Z,27.50
2019-04-03T02:33:00.421Z,28.60
2019-04-03T02:34:07.196Z,27.13
2019-04-03T02:35:14.218Z,29.60
2019-04-03T02:36:20.961Z,27.33
2019-04-03T02:37:27.684Z,28.43
2019-04-03T02:38:34.447Z,27.00
2019-04-03T02:39:41.194Z,28.50
2019-04-03T02:40:47.938Z,27.97
2019-04-03T02:41:54.884Z,28.27
2019-04-03T02:43:01.881Z,28.47
2019-04-03T02:44:08.638Z,26.63
2019-04-03T02:45:16.518Z,25.73
2019-04-03T02:46:26.912Z,27.77
2019-04-03T02:47:33.500Z,26.90
2019-04-03T02:48:40.505Z,25.80
2019-04-03T02:49:47.220Z,24.97
2019-04-03T02:50:54.584Z,23.57
2019-04-03T02:52:01.312Z,24.50
2019-04-03T02:53:09.975Z,24.73
2019-04-03T02:54:39.763Z,24.13
2019-04-03T02:55:46.504Z,23.53
2019-04-03T02:56:53.547Z,25.27
2019-04-03T02:58:00.601Z,23.73
2019-04-03T02:59:07.794Z,23.00
2019-04-03T03:00:14.928Z,23.83
2019-04-03T03:01:22.024Z,22.90
2019-04-03T03:02:28.906Z,24.07
2019-04-03T03:03:35.938Z,24.83
2019-04-03T03:04:42.906Z,26.17
2019-04-03T03:05:49.898Z,24.80
2019-04-03T03:06:57.447Z,24.30
2019-04-03T03:08:08.212Z,23.13
2019-04-03T03:09:14.523Z,22.90
2019-04-03T03:10:21.955Z,26.00
2019-04-03T03:11:29.583Z,24.90
2019-04-03T03:12:39.799Z,25.50
2019-04-03T03:13:48.877Z,24.83
2019-04-03T03:14:56.439Z,26.33
2019-04-03T03:16:03.362Z,26.80
2019-04-03T03:17:10.458Z,25.50
2019-04-03T03:18:18.696Z,27.03
2019-04-03T03:19:26.273Z,25.03
2019-04-03T03:20:34.492Z,25.50
2019-04-03T03:21:44.687Z,26.43
2019-04-03T03:22:54.709Z,26.00
2019-04-03T03:24:02.827Z,27.40
2019-04-03T03:25:10.394Z,27.27
2019-04-03T03:26:17.892Z,27.10
2019-04-03T03:27:25.619Z,24.80
2019-04-03T03:28:33.279Z,25.67
2019-04-03T03:29:41.140Z,25.60
2019-04-03T03:30:57.729Z,26.80
2019-04-03T03:32:10.751Z,26.97
2019-04-03T03:33:28.926Z,24.60
2019-04-03T03:34:43.560Z,21.57
2019-04-03T03:35:31.458Z,21.60
2019-04-03T03:36:36.941Z,19.70
2019-04-03T03:37:45.466Z,19.40
2019-04-03T03:38:52.608Z,19.57
2019-04-03T03:40:01.209Z,19.90
2019-04-03T03:41:08.627Z,19.87
2019-04-03T03:42:16.408Z,21.20
2019-04-03T03:43:24.091Z,18.00
2019-04-03T03:44:31.895Z,20.47
2019-04-03T03:45:39.982Z,18.63
2019-04-03T03:46:47.281Z,18.33
2019-04-03T03:47:57.319Z,17.80
2019-04-03T03:49:04.848Z,16.43
2019-04-03T03:50:12.285Z,18.33
2019-04-03T03:51:19.900Z,16.03
2019-04-03T03:52:27.616Z,15.47
2019-04-03T03:53:35.599Z,16.60
2019-04-03T03:54:42.841Z,16.97
2019-04-03T03:55:50.990Z,16.40
2019-04-03T03:56:58.435Z,16.97
2019-04-03T03:58:10.810Z,15.33
2019-04-03T03:59:17.654Z,15.83
2019-04-03T04:00:25.033Z,15.90
2019-04-03T04:01:32.879Z,14.67
2019-04-03T04:02:43.725Z,15.40
2019-04-03T04:03:49.026Z,15.30
2019-04-03T04:04:57.003Z,16.30
2019-04-03T04:06:03.979Z,15.93
2019-04-03T04:07:11.330Z,15.53
2019-04-03T04:08:19.574Z,17.27
2019-04-03T04:09:26.862Z,15.83
2019-04-03T04:10:37.135Z,15.87
2019-04-03T04:11:44.480Z,15.43
2019-04-03T04:12:51.661Z,15.60
2019-04-03T04:13:58.947Z,15.03
2019-04-03T04:15:06.744Z,15.43
2019-04-03T04:16:13.546Z,16.87
2019-04-03T04:17:21.735Z,17.87
2019-04-03T04:18:28.911Z,15.67
2019-04-03T04:19:37.765Z,16.47
2019-04-03T04:20:44.540Z,17.30
2019-04-03T04:21:52.107Z,16.67
2019-04-03T04:22:59.706Z,14.60
2019-04-03T04:24:07.407Z,16.17
2019-04-03T04:25:14.652Z,15.87
2019-04-03T04:26:21.655Z,17.07
2019-04-03T04:27:29.669Z,15.90
2019-04-03T04:28:39.228Z,16.20
2019-04-03T04:29:46.736Z,15.07
2019-04-03T04:30:56.939Z,14.33
2019-04-03T04:32:03.698Z,15.23
2019-04-03T04:33:10.467Z,16.20
2019-04-03T04:34:18.830Z,15.00
2019-04-03T04:35:25.906Z,15.27
2019-04-03T04:36:32.670Z,14.77
2019-04-03T04:37:40.676Z,15.13
2019-04-03T04:38:48.041Z,15.17
2019-04-03T04:39:54.820Z,16.07
2019-04-03T04:41:02.190Z,14.53
2019-04-03T04:42:09.107Z,15.87
2019-04-03T04:43:16.341Z,14.47
2019-04-03T04:44:23.157Z,15.40
2019-04-03T04:45:33.164Z,15.43
2019-04-03T04:46:39.075Z,14.30
2019-04-03T04:47:46.540Z,14.30
2019-04-03T04:48:53.470Z,15.07
2019-04-03T04:50:00.225Z,14.07
2019-04-03T04:51:07.185Z,13.77
2019-04-03T04:52:14.071Z,14.37
2019-04-03T04:53:21.146Z,12.23
2019-04-03T04:54:28.741Z,14.57
2019-04-03T04:55:36.456Z,14.00
2019-04-03T04:56:43.196Z,15.07
2019-04-03T04:57:50.306Z,13.17
2019-04-03T04:58:57.766Z,13.70
2019-04-03T05:00:05.612Z,13.60
2019-04-03T05:01:15.502Z,13.50
2019-04-03T05:02:24.449Z,13.60
2019-04-03T05:03:31.499Z,14.10
2019-04-03T05:04:38.850Z,13.50
2019-04-03T05:05:45.795Z,14.10
2019-04-03T05:06:54.106Z,14.07
2019-04-03T05:08:01.865Z,14.17
2019-04-03T05:09:09.399Z,13.53
2019-04-03T05:10:18.053Z,14.77
2019-04-03T05:11:25.045Z,12.80
2019-04-03T05:12:32.230Z,13.60
2019-04-03T05:13:39.085Z,13.97
2019-04-03T05:14:46.836Z,14.50
2019-04-03T05:15:55.411Z,13.93
2019-04-03T05:17:03.241Z,13.10
2019-04-03T05:18:10.676Z,13.10
2019-04-03T05:19:19.099Z,13.93
2019-04-03T05:20:26.159Z,13.23
2019-04-03T05:21:33.080Z,16.07
2019-04-03T05:22:40.214Z,12.67
2019-04-03T05:23:47.446Z,14.60
2019-04-03T05:24:54.599Z,13.17
2019-04-03T05:26:02.056Z,13.90
2019-04-03T05:27:09.112Z,14.23
2019-04-03T05:28:16.347Z,13.73
2019-04-03T05:29:23.529Z,13.50
2019-04-03T05:30:37.770Z,14.50
2019-04-03T05:31:43.923Z,12.80
2019-04-03T05:32:50.911Z,12.57
2019-04-03T05:33:57.759Z,13.80
2019-04-03T05:35:05.162Z,14.17
2019-04-03T05:36:11.889Z,13.00
2019-04-03T05:37:20.157Z,14.97
2019-04-03T05:38:27.666Z,14.70
2019-04-03T05:39:34.991Z,13.87
2019-04-03T05:40:42.378Z,13.60
2019-04-03T05:41:49.185Z,14.07
2019-04-03T05:42:56.174Z,14.67
2019-04-03T05:44:04.675Z,13.67
2019-04-03T05:45:11.437Z,13.77
2019-04-03T05:46:19.602Z,13.63
2019-04-03T05:47:27.162Z,13.73
2019-04-03T05:48:34.016Z,14.20
2019-04-03T05:49:40.979Z,14.10
2019-04-03T05:50:48.039Z,13.00
2019-04-03T05:51:55.802Z,14.80
2019-04-03T05:53:05.658Z,13.20
2019-04-03T05:54:14.125Z,13.67
2019-04-03T05:55:20.018Z,12.47
2019-04-03T05:56:27.027Z,13.90
2019-04-03T05:57:34.110Z,13.60
2019-04-03T05:58:54.066Z,13.23
2019-04-03T05:59:59.792Z,13.03
2019-04-03T06:01:04.894Z,12.73
2019-04-03T06:02:14.660Z,12.80
2019-04-03T06:03:16.803Z,13.17
2019-04-03T06:04:23.566Z,13.93
2019-04-03T06:05:30.295Z,13.63
2019-04-03T06:06:37.099Z,13.30
2019-04-03T06:07:46.905Z,13.87
2019-04-03T06:08:52.393Z,12.63
2019-04-03T06:09:59.327Z,13.33
2019-04-03T06:11:08.827Z,13.20
2019-04-03T06:12:18.251Z,13.37
2019-04-03T06:13:23.881Z,12.17
2019-04-03T06:14:31.149Z,13.90
2019-04-03T06:15:38.029Z,12.53
2019-04-03T06:16:45.165Z,12.50
2019-04-03T06:17:54.288Z,13.33
2019-04-03T06:19:00.740Z,12.00
2019-04-03T06:20:10.888Z,11.97
2019-04-03T06:21:17.030Z,12.37
2019-04-03T06:22:23.784Z,13.77
2019-04-03T06:23:30.826Z,12.33
2019-04-03T06:24:37.587Z,12.60
2019-04-03T06:25:44.423Z,12.70
2019-04-03T06:26:51.238Z,12.57
2019-04-03T06:27:58.299Z,13.70
2019-04-03T06:29:08.010Z,13.00
2019-04-03T06:30:16.519Z,13.57
2019-04-03T06:31:24.337Z,12.47
2019-04-03T06:32:32.516Z,13.07
2019-04-03T06:33:39.303Z,13.80
2019-04-03T06:34:46.062Z,13.23
2019-04-03T06:35:52.826Z,12.90
2019-04-03T06:36:59.592Z,13.10
2019-04-03T06:38:06.396Z,13.10
2019-04-03T06:39:13.488Z,13.63
2019-04-03T06:40:20.657Z,12.80
2019-04-03T06:41:27.416Z,13.73
2019-04-03T06:42:34.393Z,12.93
2019-04-03T06:43:41.558Z,13.57
2019-04-03T06:44:48.468Z,12.47
2019-04-03T06:45:56.979Z,13.20
2019-04-03T06:47:03.895Z,12.53
2019-04-03T06:48:10.922Z,13.60
2019-04-03T06:49:17.980Z,13.60
2019-04-03T06:50:25.191Z,12.93
2019-04-03T06:51:32.392Z,12.27
2019-04-03T06:52:39.759Z,13.70
2019-04-03T06:53:47.131Z,12.60
2019-04-03T06:54:54.125Z,12.67
2019-04-03T06:56:01.062Z,13.37
2019-04-03T06:57:07.847Z,12.40
2019-04-03T06:58:15.094Z,12.70
2019-04-03T06:59:22.231Z,11.90
2019-04-03T07:00:29.089Z,12.77
2019-04-03T07:01:36.019Z,13.30
2019-04-03T07:02:43.252Z,13.23
2019-04-03T07:03:50.150Z,12.77
2019-04-03T07:04:56.910Z,12.90
2019-04-03T07:06:04.443Z,14.13
2019-04-03T07:07:11.290Z,12.00
2019-04-03T07:08:28.713Z,13.67
2019-04-03T07:09:35.286Z,12.83
2019-04-03T07:10:37.001Z,12.17
2019-04-03T07:11:44.282Z,14.07
2019-04-03T07:12:51.038Z,13.80
2019-04-03T07:13:58.422Z,13.80
2019-04-03T07:15:06.609Z,13.17
2019-04-03T07:16:13.492Z,13.10
2019-04-03T07:17:20.245Z,13.80
2019-04-03T07:18:27.055Z,13.37
2019-04-03T07:19:33.857Z,11.53
2019-04-03T07:20:40.878Z,13.37
2019-04-03T07:21:48.504Z,12.23
2019-04-03T07:22:55.309Z,13.73
2019-04-03T07:24:02.311Z,14.57
2019-04-03T07:25:09.508Z,13.53
2019-04-03T07:26:17.387Z,13.00
2019-04-03T07:27:24.608Z,13.03
2019-04-03T07:28:31.413Z,14.13
2019-04-03T07:29:38.233Z,14.40
2019-04-03T07:30:45.031Z,13.20
2019-04-03T07:31:52.796Z,11.97
2019-04-03T07:33:00.407Z,13.57
2019-04-03T07:34:07.171Z,12.97
2019-04-03T07:35:14.023Z,11.47
2019-04-03T07:36:21.149Z,11.93
2019-04-03T07:37:28.408Z,12.30
2019-04-03T07:38:35.568Z,12.67
2019-04-03T07:39:42.771Z,12.77
2019-04-03T07:40:50.941Z,13.30
2019-04-03T07:41:58.305Z,11.63
2019-04-03T07:43:05.516Z,12.63
2019-04-03T07:44:12.289Z,12.10
2019-04-03T07:45:19.045Z,13.10
2019-04-03T07:46:25.819Z,12.30
2019-04-03T07:47:34.422Z,13.60
2019-04-03T07:48:41.150Z,12.10
2019-04-03T07:49:47.978Z,11.87
2019-04-03T07:50:55.116Z,12.63
2019-04-03T07:52:03.866Z,12.63
2019-04-03T07:53:10.961Z,12.93
2019-04-03T07:54:17.757Z,12.20
2019-04-03T07:55:26.672Z,12.33
2019-04-03T07:56:33.276Z,11.57
2019-04-03T07:57:41.384Z,12.77
2019-04-03T07:58:48.725Z,12.27
2019-04-03T07:59:55.815Z,13.07
2019-04-03T08:01:02.667Z,11.77
2019-04-03T08:02:11.887Z,12.17
2019-04-03T08:03:20.366Z,13.20
2019-04-03T08:04:28.027Z,13.37
2019-04-03T08:05:35.391Z,12.10
2019-04-03T08:06:42.476Z,11.70
2019-04-03T08:07:49.598Z,12.60
2019-04-03T08:09:07.338Z,12.77
2019-04-03T08:10:06.298Z,14.10
2019-04-03T08:11:14.987Z,13.13
2019-04-03T08:12:22.244Z,12.87
2019-04-03T08:13:29.149Z,12.40
2019-04-03T08:14:35.891Z,13.20
2019-04-03T08:15:44.423Z,12.33
2019-04-03T08:16:52.587Z,14.00
2019-04-03T08:17:59.714Z,12.30
2019-04-03T08:19:08.385Z,12.00
2019-04-03T08:20:15.391Z,12.20
2019-04-03T08:21:23.352Z,10.83
2019-04-03T08:22:32.770Z,12.83
2019-04-03T08:23:38.671Z,11.33
2019-04-03T08:24:45.782Z,13.23
2019-04-03T08:25:54.233Z,11.30
2019-04-03T08:27:01.598Z,11.30
2019-04-03T08:28:08.854Z,10.90
2019-04-03T08:29:16.461Z,9.63
2019-04-03T08:30:25.063Z,6.60
2019-04-03T08:31:32.922Z,5.73
2019-04-03T08:32:39.726Z,5.30
2019-04-03T08:33:46.488Z,4.50
2019-04-03T08:34:53.565Z,4.40
2019-04-03T08:36:00.304Z,5.00
2019-04-03T08:37:09.602Z,6.07
2019-04-03T08:38:16.438Z,7.30
2019-04-03T08:39:24.299Z,6.97
2019-04-03T08:40:31.239Z,6.10
2019-04-03T08:41:38.720Z,6.87
2019-04-03T08:42:45.610Z,6.90
2019-04-03T08:43:52.797Z,6.50
2019-04-03T08:44:59.606Z,6.57
2019-04-03T08:46:09.526Z,6.97
2019-04-03T08:47:15.341Z,6.60
2019-04-03T08:48:22.379Z,6.53
2019-04-03T08:49:29.512Z,6.90
2019-04-03T08:50:36.531Z,6.40
2019-04-03T08:51:43.451Z,6.33
2019-04-03T08:52:50.178Z,5.73
2019-04-03T08:53:57.723Z,5.83
2019-04-03T08:55:04.481Z,5.80
2019-04-03T08:56:11.241Z,6.33
2019-04-03T08:57:20.464Z,6.60
2019-04-03T08:58:27.199Z,6.00
2019-04-03T08:59:34.397Z,7.33
2019-04-03T09:00:41.888Z,6.10
2019-04-03T09:01:48.612Z,6.37
2019-04-03T09:02:55.688Z,6.40
2019-04-03T09:04:02.727Z,7.10
2019-04-03T09:05:09.800Z,7.00
2019-04-03T09:06:16.577Z,7.13
2019-04-03T09:07:24.939Z,6.50
2019-04-03T09:08:33.159Z,6.30
2019-04-03T09:09:40.592Z,6.60
2019-04-03T09:10:48.087Z,5.83
2019-04-03T09:11:55.247Z,5.87
2019-04-03T09:13:15.449Z,7.40
2019-04-03T09:14:10.644Z,6.40
2019-04-03T09:15:18.323Z,5.83
2019-04-03T09:16:25.644Z,6.83
2019-04-03T09:17:34.110Z,6.70
2019-04-03T09:18:40.922Z,6.93
2019-04-03T09:19:48.067Z,6.67
2019-04-03T09:20:55.136Z,6.60
2019-04-03T09:22:02.545Z,7.07
2019-04-03T09:23:09.292Z,6.40
2019-04-03T09:24:16.027Z,6.43
2019-04-03T09:25:22.875Z,6.40
2019-04-03T09:26:29.998Z,6.27
2019-04-03T09:27:40.362Z,6.43
2019-04-03T09:28:47.083Z,7.10
2019-04-03T09:29:53.977Z,7.20
2019-04-03T09:31:00.877Z,7.93
2019-04-03T09:32:08.007Z,6.60
2019-04-03T09:33:15.154Z,6.50
2019-04-03T09:34:22.244Z,5.40
2019-04-03T09:35:28.991Z,5.63
2019-04-03T09:36:35.829Z,5.10
2019-04-03T09:37:45.359Z,5.30
2019-04-03T09:38:51.034Z,5.00
2019-04-03T09:39:57.784Z,5.40
2019-04-03T09:41:04.563Z,5.23
2019-04-03T09:42:12.095Z,5.70
2019-04-03T09:43:21.525Z,5.13
2019-04-03T09:44:27.796Z,5.27
2019-04-03T09:45:34.938Z,5.97
2019-04-03T09:46:44.452Z,5.67
2019-04-03T09:47:50.163Z,4.70
2019-04-03T09:48:57.227Z,4.97
2019-04-03T09:50:06.773Z,4.70
2019-04-03T09:51:13.842Z,5.40
2019-04-03T09:52:23.615Z,4.37
2019-04-03T09:53:29.821Z,5.77
2019-04-03T09:54:36.623Z,5.10
2019-04-03T09:55:43.737Z,4.57
2019-04-03T09:56:59.771Z,4.60
2019-04-03T09:58:02.422Z,3.60
2019-04-03T09:59:09.397Z,3.93
2019-04-03T10:00:17.381Z,3.30
2019-04-03T10:01:24.126Z,4.00
2019-04-03T10:02:31.088Z,3.83
2019-04-03T10:03:38.155Z,3.53
2019-04-03T10:04:45.525Z,4.20
2019-04-03T10:05:52.498Z,3.80
2019-04-03T10:06:59.890Z,5.37
2019-04-03T10:08:09.024Z,4.80
2019-04-03T10:09:16.519Z,4.30
2019-04-03T10:10:25.627Z,3.30
2019-04-03T10:11:32.528Z,4.90
2019-04-03T10:12:39.329Z,4.83
2019-04-03T10:13:46.880Z,4.20
2019-04-03T10:14:53.642Z,3.80
2019-04-03T10:16:03.254Z,4.10
2019-04-03T10:17:08.861Z,4.07
2019-04-03T10:18:15.590Z,3.97
2019-04-03T10:19:22.425Z,4.10
2019-04-03T10:20:29.683Z,4.40
2019-04-03T10:21:37.430Z,3.97
2019-04-03T10:22:44.266Z,3.80
2019-04-03T10:23:51.441Z,4.10
2019-04-03T10:25:00.550Z,3.30
2019-04-03T10:26:08.736Z,4.83
2019-04-03T10:27:15.835Z,4.40
2019-04-03T10:28:23.182Z,3.83
2019-04-03T10:29:30.243Z,5.53
2019-04-03T10:30:37.640Z,3.90
2019-04-03T10:31:44.402Z,4.13
2019-04-03T10:32:51.252Z,3.83
2019-04-03T10:33:58.072Z,3.63
2019-04-03T10:35:08.281Z,3.60
2019-04-03T10:36:17.684Z,4.90
2019-04-03T10:37:24.738Z,4.70
2019-04-03T10:38:31.642Z,4.23
2019-04-03T10:39:43.633Z,4.73
2019-04-03T10:40:47.717Z,4.00
2019-04-03T10:41:55.096Z,4.43
2019-04-03T10:43:04.638Z,3.77
2019-04-03T10:44:10.433Z,4.50
2019-04-03T10:45:18.015Z,4.37
2019-04-03T10:46:24.792Z,5.70
2019-04-03T10:47:41.181Z,4.07
2019-04-03T10:48:40.582Z,4.97
2019-04-03T10:49:47.408Z,4.50
2019-04-03T10:50:54.190Z,4.43
2019-04-03T10:52:01.101Z,5.60
2019-04-03T10:53:07.903Z,5.20
2019-04-03T10:54:14.661Z,6.20
2019-04-03T10:55:21.451Z,5.90
2019-04-03T10:56:29.315Z,5.30
2019-04-03T10:57:37.565Z,5.93
2019-04-03T10:58:44.410Z,5.07
2019-04-03T10:59:54.490Z,4.90
2019-04-03T11:00:59.942Z,5.27
2019-04-03T11:02:07.526Z,5.30
2019-04-03T11:03:14.279Z,5.53
2019-04-03T11:04:21.026Z,5.60
2019-04-03T11:05:27.824Z,6.10
2019-04-03T11:06:36.668Z,5.70
2019-04-03T11:07:43.821Z,6.13
2019-04-03T11:08:52.248Z,5.63
2019-04-03T11:09:59.557Z,6.40
2019-04-03T11:11:06.914Z,5.23
2019-04-03T11:12:13.800Z,5.03
2019-04-03T11:13:20.816Z,6.00
2019-04-03T11:14:28.194Z,6.93
2019-04-03T11:15:35.116Z,7.00
2019-04-03T11:16:45.973Z,8.13
2019-04-03T11:17:50.743Z,8.00
2019-04-03T11:19:02.728Z,6.83
2019-04-03T11:20:09.640Z,8.10
2019-04-03T11:21:16.899Z,8.00
2019-04-03T11:22:24.484Z,7.70
2019-04-03T11:23:39.790Z,8.17
2019-04-03T11:24:42.522Z,7.30
2019-04-03T11:25:48.790Z,7.27
2019-04-03T11:26:56.063Z,6.57
2019-04-03T11:28:05.059Z,7.20
2019-04-03T11:29:11.731Z,6.67
2019-04-03T11:30:23.747Z,6.20
2019-04-03T11:31:29.523Z,6.57
2019-04-03T11:32:36.988Z,6.30
2019-04-03T11:33:45.615Z,6.10
2019-04-03T11:34:53.944Z,7.03
2019-04-03T11:36:01.583Z,7.27
2019-04-03T11:37:08.418Z,6.87
2019-04-03T11:38:25.375Z,8.93
2019-04-03T11:39:24.204Z,8.57
2019-04-03T11:40:31.166Z,9.00
2019-04-03T11:41:38.409Z,7.90
2019-04-03T11:42:45.587Z,7.07
2019-04-03T11:43:52.869Z,7.30
2019-04-03T11:45:02.351Z,7.47
2019-04-03T11:46:08.814Z,6.53
2019-04-03T11:47:15.718Z,6.93
2019-04-03T11:48:22.460Z,6.00
2019-04-03T11:49:30.162Z,6.90
2019-04-03T11:50:39.509Z,7.07
2019-04-03T11:51:46.508Z,7.43
2019-04-03T11:52:53.839Z,7.70
2019-04-03T11:54:01.150Z,7.43
2019-04-03T11:55:10.902Z,7.27
2019-04-03T11:56:16.912Z,8.07
2019-04-03T11:57:26.653Z,8.63
2019-04-03T11:58:33.129Z,7.90
2019-04-03T11:59:40.247Z,7.23
2019-04-03T12:00:48.913Z,7.50
2019-04-03T12:01:55.707Z,7.23
2019-04-03T12:03:02.849Z,6.90
2019-04-03T12:04:10.539Z,7.37
2019-04-03T12:05:20.988Z,7.87
2019-04-03T12:06:28.823Z,7.40
2019-04-03T12:07:36.260Z,8.20
2019-04-03T12:08:45.026Z,5.90
2019-04-03T12:09:51.782Z,7.40
2019-04-03T12:10:59.548Z,6.60
2019-04-03T12:12:09.439Z,6.63
2019-04-03T12:13:14.971Z,6.10
2019-04-03T12:14:22.127Z,7.17
2019-04-03T12:15:29.145Z,6.87
2019-04-03T12:16:36.378Z,7.10
2019-04-03T12:17:43.186Z,6.20
2019-04-03T12:18:50.141Z,6.30
2019-04-03T12:19:56.992Z,6.80
2019-04-03T12:21:03.734Z,6.77
2019-04-03T12:22:10.515Z,6.70
2019-04-03T12:23:18.292Z,7.90
2019-04-03T12:24:25.423Z,7.70
2019-04-03T12:25:34.192Z,6.67
2019-04-03T12:26:43.193Z,6.30
2019-04-03T12:27:49.995Z,8.77
2019-04-03T12:28:56.898Z,7.00
2019-04-03T12:30:03.647Z,7.97
2019-04-03T12:31:10.547Z,7.47
2019-04-03T12:32:18.285Z,7.30
2019-04-03T12:33:26.574Z,7.47
2019-04-03T12:34:36.644Z,7.97
2019-04-03T12:35:42.858Z,7.53
2019-04-03T12:36:49.661Z,7.80
2019-04-03T12:37:56.795Z,8.00
2019-04-03T12:39:05.343Z,7.80
2019-04-03T12:40:12.771Z,7.50
2019-04-03T12:41:19.876Z,7.50
2019-04-03T12:42:26.721Z,7.50
2019-04-03T12:43:33.847Z,7.30
2019-04-03T12:44:41.545Z,8.30
2019-04-03T12:45:50.187Z,8.23
2019-04-03T12:46:57.984Z,7.73
2019-04-03T12:48:04.794Z,8.43
2019-04-03T12:49:11.930Z,7.70
2019-04-03T12:50:19.414Z,9.33
2019-04-03T12:51:26.484Z,8.70
2019-04-03T12:52:33.764Z,9.13
2019-04-03T12:53:40.725Z,8.47
2019-04-03T12:54:51.226Z,8.30
2019-04-03T12:55:58.396Z,9.20
2019-04-03T12:57:05.587Z,8.50
2019-04-03T12:58:12.375Z,8.57
2019-04-03T12:59:20.960Z,8.90
2019-04-03T13:00:28.403Z,7.20
2019-04-03T13:01:35.747Z,8.00
2019-04-03T13:02:42.812Z,7.70
2019-04-03T13:03:50.568Z,8.57
2019-04-03T13:05:00.411Z,8.23
2019-04-03T13:06:08.978Z,7.03
2019-04-03T13:07:15.186Z,8.73
2019-04-03T13:08:22.286Z,8.07
2019-04-03T13:09:29.722Z,8.40
2019-04-03T13:10:42.192Z,8.50
2019-04-03T13:11:45.502Z,8.73
2019-04-03T13:12:54.723Z,8.37
2019-04-03T13:14:01.459Z,8.43
2019-04-03T13:15:10.755Z,8.33
2019-04-03T13:16:17.519Z,9.20
2019-04-03T13:17:24.688Z,8.50
2019-04-03T13:18:31.471Z,8.87
2019-04-03T13:19:38.645Z,9.80
2019-04-03T13:20:45.979Z,9.10
2019-04-03T13:21:52.725Z,9.00
2019-04-03T13:22:59.829Z,8.93
2019-04-03T13:24:07.021Z,8.83
2019-04-03T13:25:14.358Z,8.70
2019-04-03T13:26:24.068Z,9.13
2019-04-03T13:27:31.702Z,10.00
2019-04-03T13:28:40.405Z,10.10
2019-04-03T13:29:47.521Z,10.87
2019-04-03T13:30:54.340Z,9.60
2019-04-03T13:32:01.827Z,9.13
2019-04-03T13:33:09.255Z,9.13
2019-04-03T13:34:16.019Z,9.77
2019-04-03T13:35:22.774Z,9.63
2019-04-03T13:36:29.889Z,9.63
2019-04-03T13:37:37.287Z,9.63
2019-04-03T13:38:45.211Z,10.03
2019-04-03T13:39:52.354Z,9.97
2019-04-03T13:40:59.440Z,10.13
2019-04-03T13:42:06.518Z,10.20
2019-04-03T13:43:14.070Z,10.20
2019-04-03T13:44:20.903Z,9.80
2019-04-03T13:45:30.732Z,9.50
2019-04-03T13:46:36.985Z,10.60
2019-04-03T13:47:47.030Z,10.40
2019-04-03T13:48:53.416Z,9.63
2019-04-03T13:50:02.621Z,9.60
2019-04-03T13:51:08.723Z,10.10
2019-04-03T13:52:15.469Z,10.40
2019-04-03T13:53:25.095Z,10.03
2019-04-03T13:54:31.524Z,11.20
2019-04-03T13:55:40.200Z,10.47
2019-04-03T13:56:47.139Z,8.87
2019-04-03T13:57:53.996Z,9.90
2019-04-03T13:59:01.556Z,10.10
2019-04-03T14:00:18.335Z,10.97
2019-04-03T14:01:19.195Z,9.23
2019-04-03T14:02:26.464Z,11.07
2019-04-03T14:03:33.285Z,10.77
2019-04-03T14:04:40.294Z,10.60
2019-04-03T14:05:47.901Z,10.33
2019-04-03T14:06:55.299Z,10.17
2019-04-03T14:08:04.458Z,8.93
2019-04-03T14:09:11.185Z,11.07
2019-04-03T14:10:18.084Z,10.23
2019-04-03T14:11:25.448Z,10.00
2019-04-03T14:12:32.344Z,10.10
2019-04-03T14:13:39.212Z,10.40
2019-04-03T14:14:47.863Z,10.30
2019-04-03T14:15:56.155Z,10.13
2019-04-03T14:17:05.455Z,8.80
2019-04-03T14:18:12.058Z,10.63
2019-04-03T14:19:19.928Z,10.20
2019-04-03T14:20:27.538Z,11.60
2019-04-03T14:21:35.754Z,10.33
2019-04-03T14:22:43.012Z,10.13
2019-04-03T14:23:49.905Z,10.10
2019-04-03T14:24:56.688Z,10.53
2019-04-03T14:26:07.098Z,11.67
2019-04-03T14:27:22.325Z,11.10
2019-04-03T14:28:21.124Z,11.23
2019-04-03T14:29:29.504Z,10.70
2019-04-03T14:30:37.246Z,11.80
2019-04-03T14:31:44.431Z,11.57
2019-04-03T14:32:52.838Z,12.90
2019-04-03T14:34:01.006Z,13.63
2019-04-03T14:35:38.264Z,12.20
2019-04-03T14:36:19.154Z,12.10
2019-04-03T14:37:26.838Z,11.20
2019-04-03T14:38:34.139Z,13.23
2019-04-03T14:39:42.943Z,12.70